Agness, Oregon
Current Conditions -  °F | °C
As of 10:59 AM on Thursday 30 Oct 2014 (Local Time) from KBOK Reporting Station
Haze Haze  
Wind Chill: 16°   Ceiling: 100
Heat Index: 16°   Visibility: 2mi
Dew Point: 16°   Wind: 8mph
Humidity: 100%   Direction: 160°SSE
Pressure: 29.92"   Gusts: NA
Location:  42.56°N, 124.07°W
Report Text: KBOK 301759Z AUTO 16007KT 2SM BR OVC001 16/16 A2992 RMK AO2
Loading
Personal Weather Stations






























Interactive Weather Map New forecast layout! Learn more

10-Day Weather Forecast

Advertisements
Track Severe Weather on mobile